Kalenakliyat 2 — TCBA7 — position and weather

sailwx.info

Track history (hours):
 
Tides and Currents Weather Stations Pressure Air Temp Water Temp Dewpoint Dewpoint Depression Visibility Wind Speed Wind Dir Waves Ship Positions

Kalenakliyat 2

Last reported at 2016-May-26 17:26 UTC. Time now 2016-May-27 00:25 UTC.
Position N 40°47' E 028°56'.

Length 72 m; draft 13.5 m.

Type: Cargo ship. MMSI: 271002023.

Date/timePositionNaut miles runAvg speedWind from/ knotsBaromVisibWave heightAir tempDewpointWater temp
2016-May-26 17:26N 40°47' E 028°56'8 9.0
2016-May-26 16:33N 40°49' E 029°06'8 8.0
2016-May-26 15:33N 40°51' E 029°16'0 0.1
2016-May-26 14:33N 40°51' E 029°16'0 0.0
2016-May-26 13:33N 40°51' E 029°16'0 0.0
2016-May-26 12:33N 40°51' E 029°16'0 0.0
2016-May-26 11:33N 40°51' E 029°16'0 0.0
2016-May-26 10:33N 40°51' E 029°16'0 0.0
2016-May-26 09:33N 40°51' E 029°16'0 0.0
2016-May-26 08:33N 40°51' E 029°16'0 0.0
2016-May-26 07:33N 40°51' E 029°16'0 0.0
2016-May-26 06:33N 40°51' E 029°16'7 7.1
2016-May-26 05:31N 40°48' E 029°07'10 9.9
2016-May-26 04:32N 40°45' E 028°55'  
2016-May-20 16:33N 40°49' E 029°04'7 6.8
2016-May-20 15:33N 40°53' E 029°11'0 0.0
2016-May-20 14:33N 40°53' E 029°11'3 2.6
2016-May-20 13:32N 40°50' E 029°11'4 4.3
2016-May-20 12:33N 40°51' E 029°16'0 0.0
2016-May-20 11:33N 40°51' E 029°16'0 0.0
2016-May-20 10:33N 40°51' E 029°16'0 0.0
2016-May-20 09:33N 40°51' E 029°16'0 0.0
2016-May-20 08:33N 40°51' E 029°16'0 0.0
2016-May-20 07:33N 40°51' E 029°16'0 0.0
2016-May-20 06:33N 40°51' E 029°16'0 0.0
2016-May-20 05:33N 40°51' E 029°16'0 0.0
2016-May-20 04:33N 40°51' E 029°16'0 0.0
2016-May-20 03:33N 40°51' E 029°16'3 2.6
2016-May-20 02:33N 40°51' E 029°13'7 6.4
2016-May-20 01:32N 40°48' E 029°05'7 6.7
2016-May-20 00:33N 40°45' E 028°58'8 0.2
2016-May-18 11:33N 40°50' E 029°05'8 8.3
2016-May-18 10:33N 40°51' E 029°16'0 0.0
2016-May-18 09:33N 40°51' E 029°16'0 0.0
2016-May-18 08:34N 40°51' E 029°16'0 0.0
2016-May-18 07:33N 40°51' E 029°16'0 0.0
2016-May-18 06:33N 40°51' E 029°16'0 0.0
2016-May-18 05:33N 40°51' E 029°16'0 0.0
2016-May-18 04:33N 40°51' E 029°16'0 0.1
2016-May-18 03:33N 40°51' E 029°16'7 6.6
2016-May-18 02:33N 40°49' E 029°08'9 8.6
2016-May-18 01:33N 40°45' E 028°58'  
Track history (hours):
 
Tides and Currents Weather Stations Pressure Air Temp Water Temp Dewpoint Dewpoint Depression Visibility Wind Speed Wind Dir Waves Ship Positions

Kalenakliyat 2

Last reported at 2016-May-26 17:26 UTC. Time now 2016-May-27 00:25 UTC.
Position N 40°47' E 028°56'.

Length 72 m; draft 13.5 m.

Type: Cargo ship. MMSI: 271002023.

Date/timePositionNaut miles runAvg speedWind from/ knotsBaromVisibWave heightAir tempDewpointWater temp
2016-May-26 17:26N 40°47' E 028°56'8 9.0
2016-May-26 16:33N 40°49' E 029°06'8 8.0
2016-May-26 15:33N 40°51' E 029°16'0 0.1
2016-May-26 14:33N 40°51' E 029°16'0 0.0
2016-May-26 13:33N 40°51' E 029°16'0 0.0
2016-May-26 12:33N 40°51' E 029°16'0 0.0
2016-May-26 11:33N 40°51' E 029°16'0 0.0
2016-May-26 10:33N 40°51' E 029°16'0 0.0
2016-May-26 09:33N 40°51' E 029°16'0 0.0
2016-May-26 08:33N 40°51' E 029°16'0 0.0
2016-May-26 07:33N 40°51' E 029°16'0 0.0
2016-May-26 06:33N 40°51' E 029°16'7 7.1
2016-May-26 05:31N 40°48' E 029°07'10 9.9
2016-May-26 04:32N 40°45' E 028°55'  
2016-May-20 16:33N 40°49' E 029°04'7 6.8
2016-May-20 15:33N 40°53' E 029°11'0 0.0
2016-May-20 14:33N 40°53' E 029°11'3 2.6
2016-May-20 13:32N 40°50' E 029°11'4 4.3
2016-May-20 12:33N 40°51' E 029°16'0 0.0
2016-May-20 11:33N 40°51' E 029°16'0 0.0
2016-May-20 10:33N 40°51' E 029°16'0 0.0
2016-May-20 09:33N 40°51' E 029°16'0 0.0
2016-May-20 08:33N 40°51' E 029°16'0 0.0
2016-May-20 07:33N 40°51' E 029°16'0 0.0
2016-May-20 06:33N 40°51' E 029°16'0 0.0
2016-May-20 05:33N 40°51' E 029°16'0 0.0
2016-May-20 04:33N 40°51' E 029°16'0 0.0
2016-May-20 03:33N 40°51' E 029°16'3 2.6
2016-May-20 02:33N 40°51' E 029°13'7 6.4
2016-May-20 01:32N 40°48' E 029°05'7 6.7
2016-May-20 00:33N 40°45' E 028°58'8 0.2
2016-May-18 11:33N 40°50' E 029°05'8 8.3
2016-May-18 10:33N 40°51' E 029°16'0 0.0
2016-May-18 09:33N 40°51' E 029°16'0 0.0
2016-May-18 08:34N 40°51' E 029°16'0 0.0
2016-May-18 07:33N 40°51' E 029°16'0 0.0
2016-May-18 06:33N 40°51' E 029°16'0 0.0
2016-May-18 05:33N 40°51' E 029°16'0 0.0
2016-May-18 04:33N 40°51' E 029°16'0 0.1
2016-May-18 03:33N 40°51' E 029°16'7 6.6
2016-May-18 02:33N 40°49' E 029°08'9 8.6
2016-May-18 01:33N 40°45' E 028°58'  

Dump ship's entire track history